Time;durP1;ratioP1;P1;durP2;ratioP2;P2;SDS_P1;SDS_P2;PMS_P1;PMS_P2;Temp;Humidity;BMP_temperature;BMP_pressure;BME280_temperature;BME280_humidity;BME280_pressure;Samples;Min_cycle;Max_cycle;Signal;HPM_P1;HPM_P2
2023/08/14 00:01:57;;;;;;;8.73;1.70;;;;;;;;;;4982193;28;99136;-71
2023/08/14 00:04:24;;;;;;;6.43;2.25;;;;;;;;;;4992290;28;99184;-72
2023/08/14 00:06:50;;;;;;;4.97;2.03;;;;;;;;;;4989108;28;99162;-71
2023/08/14 00:09:17;;;;;;;2.42;1.60;;;;;;;;;;4989946;28;99478;-71
2023/08/14 00:11:43;;;;;;;3.35;1.60;;;;;;;;;;4991252;28;98381;-72
2023/08/14 00:14:09;;;;;;;6.80;1.50;;;;;;;;;;4991060;28;100458;-73
2023/08/14 00:16:36;;;;;;;4.65;1.77;;;;;;;;;;4987221;28;99802;-76
2023/08/14 00:19:02;;;;;;;2.40;1.98;;;;;;;;;;5006481;28;98587;-78
2023/08/14 00:21:29;;;;;;;9.48;2.05;;;;;;;;;;4992462;28;99193;-77
2023/08/14 00:23:55;;;;;;;5.50;1.80;;;;;;;;;;5000189;28;100409;-76
2023/08/14 00:26:22;;;;;;;7.72;1.80;;;;;;;;;;4991407;28;99497;-76
2023/08/14 00:28:48;;;;;;;4.82;2.25;;;;;;;;;;4993622;28;99485;-79
2023/08/14 00:31:16;;;;;;;2.15;1.98;;;;;;;;;;4990546;28;98538;-79
2023/08/14 00:33:43;;;;;;;7.32;2.20;;;;;;;;;;4990348;28;99093;-78
2023/08/14 00:36:09;;;;;;;2.40;2.00;;;;;;;;;;4987936;28;100764;-78
2023/08/14 00:38:36;;;;;;;2.78;1.83;;;;;;;;;;4989911;28;98476;-78
2023/08/14 00:41:02;;;;;;;7.65;2.45;;;;;;;;;;4991186;28;100582;-79
2023/08/14 00:43:29;;;;;;;6.93;1.70;;;;;;;;;;4988353;28;99486;-79
2023/08/14 00:45:56;;;;;;;1.80;1.70;;;;;;;;;;4995213;28;99593;-79
2023/08/14 00:48:23;;;;;;;3.03;1.83;;;;;;;;;;4993013;28;99835;-78
2023/08/14 00:50:50;;;;;;;6.28;2.00;;;;;;;;;;4998345;28;98852;-79
2023/08/14 00:53:17;;;;;;;5.35;1.80;;;;;;;;;;4988894;28;101910;-76
2023/08/14 00:55:44;;;;;;;8.65;2.00;;;;;;;;;;4992890;28;99489;-76
2023/08/14 00:58:11;;;;;;;4.05;1.98;;;;;;;;;;4993370;28;98676;-78
2023/08/14 01:00:37;;;;;;;4.20;1.88;;;;;;;;;;4986460;28;99125;-77
2023/08/14 01:03:04;;;;;;;4.32;1.88;;;;;;;;;;4986843;28;99917;-77
2023/08/14 01:05:31;;;;;;;3.22;1.80;;;;;;;;;;4987606;28;98643;-82
2023/08/14 01:07:57;;;;;;;1.92;1.80;;;;;;;;;;4986478;28;100068;-82
2023/08/14 01:10:26;;;;;;;1.92;1.70;;;;;;;;;;4990311;28;99297;-79
2023/08/14 01:12:53;;;;;;;4.35;1.80;;;;;;;;;;5001027;28;99876;-80
2023/08/14 01:15:25;;;;;;;4.30;2.45;;;;;;;;;;5000023;28;99587;-80
2023/08/14 01:18:00;;;;;;;4.70;1.83;;;;;;;;;;5006847;28;98551;-80
2023/08/14 01:20:27;;;;;;;8.82;2.13;;;;;;;;;;5001337;28;98594;-80
2023/08/14 01:22:57;;;;;;;1.80;1.70;;;;;;;;;;4996228;28;99434;-78
2023/08/14 01:25:25;;;;;;;4.95;1.80;;;;;;;;;;4990125;28;98600;-77
2023/08/14 01:27:53;;;;;;;3.08;1.70;;;;;;;;;;4992129;28;99411;-77
2023/08/14 01:30:21;;;;;;;2.90;1.73;;;;;;;;;;4997606;28;99797;-78
2023/08/14 01:32:49;;;;;;;4.22;2.25;;;;;;;;;;4994531;28;99177;-77
2023/08/14 01:35:16;;;;;;;5.82;2.20;;;;;;;;;;4995331;28;100423;-77
2023/08/14 01:37:46;;;;;;;6.15;2.40;;;;;;;;;;5000201;28;98623;-77
2023/08/14 01:40:18;;;;;;;7.25;1.92;;;;;;;;;;4995505;28;98740;-78
2023/08/14 01:42:46;;;;;;;2.63;1.63;;;;;;;;;;4987348;28;99851;-78
2023/08/14 01:45:14;;;;;;;2.42;1.88;;;;;;;;;;4990421;28;98487;-77
2023/08/14 01:47:42;;;;;;;2.47;1.98;;;;;;;;;;4995492;28;99156;-78
2023/08/14 01:50:09;;;;;;;8.27;2.08;;;;;;;;;;4982656;28;99745;-77
2023/08/14 01:52:36;;;;;;;2.70;2.10;;;;;;;;;;4989908;28;98092;-77
2023/08/14 01:55:02;;;;;;;7.63;2.45;;;;;;;;;;4988084;28;99467;-78
2023/08/14 01:57:29;;;;;;;5.28;2.47;;;;;;;;;;4988998;28;98521;-78
2023/08/14 01:59:57;;;;;;;11.27;2.70;;;;;;;;;;4995752;28;99439;-78
2023/08/14 02:02:23;;;;;;;4.70;2.60;;;;;;;;;;4995379;28;100649;-81
2023/08/14 02:04:49;;;;;;;7.57;2.50;;;;;;;;;;4992286;28;98640;-80
2023/08/14 02:07:19;;;;;;;11.85;2.50;;;;;;;;;;4984370;28;99701;-80
2023/08/14 02:09:45;;;;;;;3.47;2.58;;;;;;;;;;4987976;28;99422;-80
2023/08/14 02:12:12;;;;;;;4.35;2.95;;;;;;;;;;5002972;28;98963;-80
2023/08/14 02:14:38;;;;;;;11.25;2.70;;;;;;;;;;4992970;28;99110;-80
2023/08/14 02:17:05;;;;;;;5.88;2.67;;;;;;;;;;4992549;28;97877;-80
2023/08/14 02:19:31;;;;;;;1.98;1.88;;;;;;;;;;4997174;28;98753;-80
2023/08/14 02:21:57;;;;;;;8.35;3.10;;;;;;;;;;4988858;28;99505;-79
2023/08/14 02:24:24;;;;;;;6.55;2.92;;;;;;;;;;4991580;28;99206;-79
2023/08/14 02:26:50;;;;;;;5.88;2.78;;;;;;;;;;4988785;28;100827;-77
2023/08/14 02:29:17;;;;;;;9.75;2.53;;;;;;;;;;4990563;28;99595;-78
2023/08/14 02:31:47;;;;;;;5.57;3.13;;;;;;;;;;4997057;28;99180;-78
2023/08/14 02:34:30;;;;;;;3.42;2.83;;;;;;;;;;4989437;28;99138;-77
2023/08/14 02:36:56;;;;;;;5.82;3.03;;;;;;;;;;4992752;28;98654;-78
2023/08/14 02:39:23;;;;;;;11.13;3.42;;;;;;;;;;4988900;28;100549;-78
2023/08/14 02:41:49;;;;;;;4.13;3.00;;;;;;;;;;4990413;28;98850;-77
2023/08/14 02:44:16;;;;;;;10.32;2.92;;;;;;;;;;4991755;28;98542;-80
2023/08/14 02:46:42;;;;;;;3.88;2.10;;;;;;;;;;4989629;28;99296;-81
2023/08/14 02:49:08;;;;;;;2.95;2.05;;;;;;;;;;4986758;28;103174;-79
2023/08/14 02:51:35;;;;;;;4.97;2.17;;;;;;;;;;4995087;28;100449;-79
2023/08/14 02:54:02;;;;;;;4.72;2.20;;;;;;;;;;5000113;28;100024;-79
2023/08/14 02:56:28;;;;;;;3.80;2.50;;;;;;;;;;5000625;28;100170;-79
2023/08/14 02:58:54;;;;;;;3.25;2.08;;;;;;;;;;4989259;28;99118;-78
2023/08/14 03:01:21;;;;;;;5.25;2.83;;;;;;;;;;4990647;28;99488;-77
2023/08/14 03:03:47;;;;;;;3.40;2.78;;;;;;;;;;4992922;28;98688;-78
2023/08/14 03:06:13;;;;;;;4.75;2.70;;;;;;;;;;4996532;28;101006;-78
2023/08/14 03:08:40;;;;;;;5.68;2.38;;;;;;;;;;4988460;28;104131;-78
2023/08/14 03:11:06;;;;;;;2.72;2.53;;;;;;;;;;4994008;28;98899;-78
2023/08/14 03:13:33;;;;;;;5.43;2.42;;;;;;;;;;4992232;28;99325;-78
2023/08/14 03:15:59;;;;;;;6.78;2.72;;;;;;;;;;5001460;28;99820;-78
2023/08/14 03:18:26;;;;;;;4.50;2.88;;;;;;;;;;4999591;28;98516;-79
2023/08/14 03:20:52;;;;;;;6.28;2.70;;;;;;;;;;4994516;28;100615;-77
2023/08/14 03:23:18;;;;;;;8.20;3.05;;;;;;;;;;4997635;28;98696;-77
2023/08/14 03:25:45;;;;;;;6.97;3.03;;;;;;;;;;4998082;28;99188;-77
2023/08/14 03:28:11;;;;;;;5.68;2.80;;;;;;;;;;5000467;28;99829;-77
2023/08/14 03:30:41;;;;;;;4.07;2.85;;;;;;;;;;4999351;28;98462;-77
2023/08/14 03:33:07;;;;;;;6.27;3.00;;;;;;;;;;5001081;28;98487;-77
2023/08/14 03:35:33;;;;;;;4.07;2.45;;;;;;;;;;5006362;28;99575;-77
2023/08/14 03:38:00;;;;;;;9.70;2.50;;;;;;;;;;4992391;28;99287;-77
2023/08/14 03:40:27;;;;;;;3.40;3.10;;;;;;;;;;4991828;28;99861;-77
2023/08/14 03:42:53;;;;;;;5.00;2.78;;;;;;;;;;4998007;28;98692;-78
2023/08/14 03:45:20;;;;;;;4.03;2.58;;;;;;;;;;5000385;28;99566;-78
2023/08/14 03:47:46;;;;;;;3.53;2.50;;;;;;;;;;4995860;28;99713;-78
2023/08/14 03:50:12;;;;;;;8.38;3.75;;;;;;;;;;4992272;28;98636;-78
2023/08/14 03:52:39;;;;;;;6.85;3.45;;;;;;;;;;5000679;28;99506;-77
2023/08/14 03:55:05;;;;;;;7.78;3.75;;;;;;;;;;4992239;28;98783;-77
2023/08/14 03:57:32;;;;;;;4.47;3.25;;;;;;;;;;4993583;28;98615;-77
2023/08/14 03:59:58;;;;;;;4.03;3.35;;;;;;;;;;4990271;28;101644;-76
2023/08/14 04:02:24;;;;;;;5.25;3.92;;;;;;;;;;4991549;28;100248;-75
2023/08/14 04:04:51;;;;;;;6.28;3.67;;;;;;;;;;4989415;28;99919;-76
2023/08/14 04:07:17;;;;;;;3.35;2.88;;;;;;;;;;4992107;28;100674;-77
2023/08/14 04:09:44;;;;;;;4.30;2.80;;;;;;;;;;4993941;28;98646;-78
2023/08/14 04:12:11;;;;;;;7.47;3.22;;;;;;;;;;4988583;28;100224;-77
2023/08/14 04:14:37;;;;;;;4.95;3.47;;;;;;;;;;4990193;28;100184;-77
2023/08/14 04:17:04;;;;;;;5.35;3.67;;;;;;;;;;4994670;28;98571;-77
2023/08/14 04:19:30;;;;;;;8.93;3.35;;;;;;;;;;5002249;28;99142;-77
2023/08/14 04:21:56;;;;;;;4.63;3.25;;;;;;;;;;5001270;28;99496;-78
2023/08/14 04:24:23;;;;;;;8.13;3.60;;;;;;;;;;5015375;28;98552;-79
2023/08/14 04:26:50;;;;;;;4.50;3.40;;;;;;;;;;4997600;28;100213;-79
2023/08/14 04:29:16;;;;;;;4.07;3.22;;;;;;;;;;4996513;28;98924;-79
2023/08/14 04:31:42;;;;;;;6.03;3.50;;;;;;;;;;5000450;28;99138;-79
2023/08/14 04:34:10;;;;;;;5.70;3.78;;;;;;;;;;5002381;28;99788;-77
2023/08/14 04:36:37;;;;;;;6.88;3.97;;;;;;;;;;5000582;28;101151;-77
2023/08/14 04:39:07;;;;;;;12.85;4.68;;;;;;;;;;5000717;28;100258;-77
2023/08/14 04:41:34;;;;;;;13.27;4.25;;;;;;;;;;5003880;28;99193;-76
2023/08/14 04:44:00;;;;;;;4.25;3.80;;;;;;;;;;4996908;28;98936;-78
2023/08/14 04:46:28;;;;;;;10.23;4.50;;;;;;;;;;4990481;28;99196;-78
2023/08/14 04:48:56;;;;;;;6.47;4.45;;;;;;;;;;4996029;28;98741;-78
2023/08/14 04:51:22;;;;;;;9.20;4.80;;;;;;;;;;4996832;28;99613;-77
2023/08/14 04:53:49;;;;;;;10.73;5.88;;;;;;;;;;4983246;28;100622;-73
2023/08/14 04:56:15;;;;;;;6.63;4.45;;;;;;;;;;4988663;28;99448;-73
2023/08/14 04:58:41;;;;;;;10.35;4.78;;;;;;;;;;4988825;28;99102;-73
2023/08/14 05:01:08;;;;;;;5.95;3.90;;;;;;;;;;4987203;28;99505;-73
2023/08/14 05:03:34;;;;;;;16.35;5.72;;;;;;;;;;4990507;28;98709;-73
2023/08/14 05:06:01;;;;;;;8.93;5.50;;;;;;;;;;4987115;28;99208;-73
2023/08/14 05:08:27;;;;;;;10.23;5.55;;;;;;;;;;4989811;28;98215;-73
2023/08/14 05:10:54;;;;;;;9.48;4.90;;;;;;;;;;4993087;28;99922;-73
2023/08/14 05:13:20;;;;;;;10.70;6.28;;;;;;;;;;4986004;28;99497;-72
2023/08/14 05:15:48;;;;;;;15.40;6.05;;;;;;;;;;4983372;28;99488;-73
2023/08/14 05:18:32;;;;;;;11.85;6.50;;;;;;;;;;4978844;28;99907;-73
2023/08/14 05:20:58;;;;;;;11.95;7.18;;;;;;;;;;4984042;28;99470;-73
2023/08/14 05:23:24;;;;;;;13.70;8.02;;;;;;;;;;4986276;28;98830;-73
2023/08/14 05:25:51;;;;;;;11.95;7.28;;;;;;;;;;4984906;28;99528;-73
2023/08/14 05:28:17;;;;;;;22.05;7.72;;;;;;;;;;4992174;28;99547;-72
2023/08/14 05:30:44;;;;;;;14.07;8.27;;;;;;;;;;4987649;28;99388;-72
2023/08/14 05:33:11;;;;;;;12.77;7.45;;;;;;;;;;4979575;28;98749;-73
2023/08/14 05:35:37;;;;;;;12.63;6.70;;;;;;;;;;4989266;28;98655;-72
2023/08/14 05:38:04;;;;;;;14.38;8.20;;;;;;;;;;4992126;28;99208;-73
2023/08/14 05:40:31;;;;;;;11.48;7.47;;;;;;;;;;4988596;28;99685;-72
2023/08/14 05:43:07;;;;;;;9.93;7.43;;;;;;;;;;4990062;28;98542;-72
2023/08/14 05:45:35;;;;;;;13.40;7.53;;;;;;;;;;4989539;28;100623;-72
2023/08/14 05:48:02;;;;;;;17.42;8.38;;;;;;;;;;4988046;28;99743;-72
2023/08/14 05:50:29;;;;;;;21.48;8.15;;;;;;;;;;4987038;28;98627;-72
2023/08/14 05:52:59;;;;;;;10.77;8.20;;;;;;;;;;4991315;28;99877;-72
2023/08/14 05:55:25;;;;;;;13.77;7.38;;;;;;;;;;4986125;28;98544;-72
2023/08/14 05:57:52;;;;;;;18.48;8.55;;;;;;;;;;4984017;28;99471;-73
2023/08/14 06:00:19;;;;;;;14.25;7.90;;;;;;;;;;4990620;28;100437;-73
2023/08/14 06:02:45;;;;;;;16.60;8.55;;;;;;;;;;4989387;28;99007;-73
2023/08/14 06:05:12;;;;;;;19.83;9.20;;;;;;;;;;4983958;28;99256;-74
2023/08/14 06:07:38;;;;;;;17.33;8.90;;;;;;;;;;4987299;28;99466;-73
2023/08/14 06:10:05;;;;;;;16.10;9.27;;;;;;;;;;4981520;28;99213;-73
2023/08/14 06:12:32;;;;;;;15.85;10.13;;;;;;;;;;4984305;28;100293;-73
2023/08/14 06:14:58;;;;;;;20.98;10.20;;;;;;;;;;4988362;28;98561;-73
2023/08/14 06:17:25;;;;;;;20.95;11.13;;;;;;;;;;4988649;28;99236;-73
2023/08/14 06:19:51;;;;;;;22.25;11.55;;;;;;;;;;4988033;28;99524;-72
2023/08/14 06:22:19;;;;;;;20.50;11.43;;;;;;;;;;4988476;28;97807;-72
2023/08/14 06:24:46;;;;;;;21.77;11.48;;;;;;;;;;4986302;28;98606;-72
2023/08/14 06:27:12;;;;;;;22.30;11.18;;;;;;;;;;4985849;28;99543;-72
2023/08/14 06:29:38;;;;;;;17.98;11.27;;;;;;;;;;4986667;28;99389;-72
2023/08/14 06:32:05;;;;;;;25.55;12.02;;;;;;;;;;4995588;28;101068;-72
2023/08/14 06:34:32;;;;;;;22.40;11.43;;;;;;;;;;4987888;28;98626;-72
2023/08/14 06:36:58;;;;;;;20.25;11.40;;;;;;;;;;4988224;28;99104;-72
2023/08/14 06:39:25;;;;;;;19.65;11.05;;;;;;;;;;4983165;28;99469;-72
2023/08/14 06:41:52;;;;;;;19.60;10.80;;;;;;;;;;4989929;28;98632;-72
2023/08/14 06:44:18;;;;;;;19.10;10.88;;;;;;;;;;4986954;28;99197;-72
2023/08/14 06:46:44;;;;;;;21.90;11.18;;;;;;;;;;4987477;28;98703;-73
2023/08/14 06:49:11;;;;;;;17.35;10.35;;;;;;;;;;4996329;28;98628;-72
2023/08/14 06:51:38;;;;;;;17.85;10.40;;;;;;;;;;4988206;28;100408;-72
2023/08/14 06:54:05;;;;;;;21.10;11.50;;;;;;;;;;4988392;28;100186;-73
2023/08/14 06:56:31;;;;;;;14.88;9.75;;;;;;;;;;4986339;28;99969;-72
2023/08/14 06:58:58;;;;;;;21.50;11.55;;;;;;;;;;4984851;28;100109;-72
2023/08/14 07:01:24;;;;;;;20.00;11.07;;;;;;;;;;4991080;28;98745;-72
2023/08/14 07:03:51;;;;;;;19.00;11.00;;;;;;;;;;4990108;28;99218;-72
2023/08/14 07:06:19;;;;;;;25.17;12.15;;;;;;;;;;4990744;28;99519;-73
2023/08/14 07:08:45;;;;;;;21.92;11.30;;;;;;;;;;4994572;28;99667;-72
2023/08/14 07:11:12;;;;;;;21.33;10.35;;;;;;;;;;4991447;28;102857;-73
2023/08/14 07:13:38;;;;;;;19.10;10.63;;;;;;;;;;4989293;28;99537;-72
2023/08/14 07:16:05;;;;;;;26.02;11.27;;;;;;;;;;4994195;28;98687;-72
2023/08/14 07:18:31;;;;;;;23.60;11.65;;;;;;;;;;4989146;28;100225;-73
2023/08/14 07:20:58;;;;;;;19.38;9.90;;;;;;;;;;4985408;28;98681;-73
2023/08/14 07:23:24;;;;;;;22.13;9.48;;;;;;;;;;4993525;28;99340;-72
2023/08/14 07:25:50;;;;;;;13.82;9.50;;;;;;;;;;4995137;28;99483;-72
2023/08/14 07:28:17;;;;;;;21.60;10.63;;;;;;;;;;4991196;28;98442;-72
2023/08/14 07:30:43;;;;;;;22.48;11.77;;;;;;;;;;4998603;28;102390;-72
2023/08/14 07:33:10;;;;;;;22.00;9.93;;;;;;;;;;4990776;28;99486;-74
2023/08/14 07:35:37;;;;;;;16.92;10.10;;;;;;;;;;4991712;28;97766;-74
2023/08/14 07:38:04;;;;;;;20.60;9.90;;;;;;;;;;4993635;28;100010;-74
2023/08/14 07:40:30;;;;;;;17.75;10.13;;;;;;;;;;4987441;28;98528;-74
2023/08/14 07:42:57;;;;;;;17.92;9.73;;;;;;;;;;4991968;28;99219;-74
2023/08/14 07:45:23;;;;;;;22.42;10.60;;;;;;;;;;4989942;28;99570;-74
2023/08/14 07:47:50;;;;;;;24.85;11.52;;;;;;;;;;4991000;28;99036;-74
2023/08/14 07:50:16;;;;;;;25.38;10.60;;;;;;;;;;4990237;28;99228;-74
2023/08/14 07:52:43;;;;;;;15.95;9.27;;;;;;;;;;4988122;28;99547;-74
2023/08/14 07:55:09;;;;;;;18.02;9.68;;;;;;;;;;4990711;28;98542;-74
2023/08/14 07:57:35;;;;;;;24.65;10.48;;;;;;;;;;4990502;28;101792;-74
2023/08/14 08:00:07;;;;;;;18.40;10.32;;;;;;;;;;4992849;28;99016;-74
2023/08/14 08:02:33;;;;;;;23.30;9.70;;;;;;;;;;4990247;28;98853;-74
2023/08/14 08:04:59;;;;;;;29.05;9.65;;;;;;;;;;4985628;28;99543;-74
2023/08/14 08:07:26;;;;;;;14.13;7.55;;;;;;;;;;4990824;28;99340;-74
2023/08/14 08:09:53;;;;;;;12.30;6.03;;;;;;;;;;4990810;28;101473;-74
2023/08/14 08:12:19;;;;;;;16.40;5.93;;;;;;;;;;4988413;28;102664;-74
2023/08/14 08:14:46;;;;;;;11.88;5.78;;;;;;;;;;4989965;28;98606;-74
2023/08/14 08:17:12;;;;;;;24.33;6.80;;;;;;;;;;4991261;28;99104;-74
2023/08/14 08:19:39;;;;;;;14.75;5.28;;;;;;;;;;4988462;28;99264;-74
2023/08/14 08:22:06;;;;;;;21.30;5.20;;;;;;;;;;5002274;28;98528;-74
2023/08/14 08:24:33;;;;;;;16.02;4.57;;;;;;;;;;4986642;28;98698;-74
2023/08/14 08:26:59;;;;;;;11.20;4.10;;;;;;;;;;4990388;28;98678;-74
2023/08/14 08:29:26;;;;;;;15.77;5.03;;;;;;;;;;4989782;28;99139;-74
2023/08/14 08:31:52;;;;;;;12.02;5.10;;;;;;;;;;5001776;28;100559;-74
2023/08/14 08:34:19;;;;;;;17.08;4.88;;;;;;;;;;4994738;28;98501;-74
2023/08/14 08:36:45;;;;;;;9.73;3.80;;;;;;;;;;4990864;28;102004;-74
2023/08/14 08:39:11;;;;;;;14.30;3.97;;;;;;;;;;4990339;28;99655;-74
2023/08/14 08:41:38;;;;;;;18.60;4.57;;;;;;;;;;5003265;28;99135;-74
2023/08/14 08:44:24;;;;;;;15.77;4.30;;;;;;;;;;4986224;28;100899;-75
2023/08/14 08:46:51;;;;;;;18.45;4.43;;;;;;;;;;4989198;28;98547;-75
2023/08/14 08:49:17;;;;;;;14.15;4.68;;;;;;;;;;4988959;28;99131;-75
2023/08/14 08:51:45;;;;;;;15.05;3.60;;;;;;;;;;4993823;28;99976;-75
2023/08/14 08:54:14;;;;;;;11.27;3.35;;;;;;;;;;4990533;28;98637;-74
2023/08/14 08:56:41;;;;;;;15.52;3.97;;;;;;;;;;4990084;28;101818;-75
2023/08/14 08:59:08;;;;;;;16.95;4.60;;;;;;;;;;4989305;28;99520;-75
2023/08/14 09:01:34;;;;;;;13.57;3.25;;;;;;;;;;4990992;28;98986;-75
2023/08/14 09:04:01;;;;;;;17.45;3.63;;;;;;;;;;4992749;28;99178;-75
2023/08/14 09:06:28;;;;;;;11.02;3.42;;;;;;;;;;4989442;28;98516;-75
2023/08/14 09:08:54;;;;;;;15.85;3.40;;;;;;;;;;4994030;28;102210;-74
2023/08/14 09:11:21;;;;;;;12.88;3.55;;;;;;;;;;4993951;28;99578;-75
2023/08/14 09:13:48;;;;;;;12.70;3.45;;;;;;;;;;4988330;28;97908;-75
2023/08/14 09:16:15;;;;;;;9.50;3.15;;;;;;;;;;4992403;28;99517;-75
2023/08/14 09:18:42;;;;;;;17.33;3.97;;;;;;;;;;4989752;28;100766;-74
2023/08/14 09:21:08;;;;;;;12.85;3.47;;;;;;;;;;4989759;28;99248;-75
2023/08/14 09:23:37;;;;;;;9.45;3.15;;;;;;;;;;4984057;28;99943;-75
2023/08/14 09:26:03;;;;;;;13.23;3.67;;;;;;;;;;5001176;28;99523;-75
2023/08/14 09:28:30;;;;;;;11.80;3.53;;;;;;;;;;4987338;28;99145;-75
2023/08/14 09:31:10;;;;;;;12.45;3.70;;;;;;;;;;4987725;28;99518;-75
2023/08/14 09:33:37;;;;;;;19.75;4.25;;;;;;;;;;4990112;28;98480;-75
2023/08/14 09:36:04;;;;;;;11.88;4.20;;;;;;;;;;4993665;28;99678;-75
2023/08/14 09:38:31;;;;;;;12.43;4.10;;;;;;;;;;4996251;28;98702;-74
2023/08/14 09:40:57;;;;;;;14.98;3.67;;;;;;;;;;5000135;28;98609;-75
2023/08/14 09:43:24;;;;;;;11.85;4.68;;;;;;;;;;4991398;28;99473;-75
2023/08/14 09:45:51;;;;;;;15.73;4.95;;;;;;;;;;4987530;28;100200;-75
2023/08/14 09:48:18;;;;;;;11.75;4.20;;;;;;;;;;4993904;28;98644;-75
2023/08/14 09:50:48;;;;;;;14.63;4.53;;;;;;;;;;4992100;28;99411;-74
2023/08/14 09:53:14;;;;;;;;;;;;;;;;;;4989848;28;98483;-73
2023/08/14 09:55:42;;;;;;;18.27;4.82;;;;;;;;;;4989900;28;129857;-73
2023/08/14 09:58:08;;;;;;;12.35;5.00;;;;;;;;;;4984679;28;99598;-73
2023/08/14 10:00:36;;;;;;;14.45;4.70;;;;;;;;;;4988893;28;98615;-73
2023/08/14 10:03:03;;;;;;;15.27;4.50;;;;;;;;;;4994298;28;101676;-72
2023/08/14 10:05:30;;;;;;;19.45;5.85;;;;;;;;;;4988777;28;99347;-73
2023/08/14 10:07:57;;;;;;;13.90;5.20;;;;;;;;;;4990669;28;98633;-72
2023/08/14 10:10:24;;;;;;;15.75;4.10;;;;;;;;;;4999548;28;99526;-72
2023/08/14 10:12:56;;;;;;;6.88;4.05;;;;;;;;;;4991571;28;98631;-73
2023/08/14 10:15:25;;;;;;;18.85;4.93;;;;;;;;;;4988408;28;99220;-73
2023/08/14 10:18:04;;;;;;;14.75;4.93;;;;;;;;;;4988545;28;99635;-73
2023/08/14 10:20:33;;;;;;;17.88;4.30;;;;;;;;;;4991313;28;98890;-73
2023/08/14 10:23:00;;;;;;;9.43;4.07;;;;;;;;;;4991443;28;100371;-73
2023/08/14 10:25:27;;;;;;;15.45;4.00;;;;;;;;;;4990327;28;100476;-72
2023/08/14 10:27:54;;;;;;;13.93;3.70;;;;;;;;;;4988507;28;97866;-73
2023/08/14 10:30:24;;;;;;;13.60;4.20;;;;;;;;;;4993036;28;98745;-73
2023/08/14 10:32:52;;;;;;;12.02;3.90;;;;;;;;;;4990235;28;99551;-73
2023/08/14 10:35:23;;;;;;;13.30;4.00;;;;;;;;;;4986384;28;99424;-72
2023/08/14 10:37:50;;;;;;;12.38;2.80;;;;;;;;;;4988558;28;99441;-73
2023/08/14 10:40:34;;;;;;;13.55;2.65;;;;;;;;;;4988658;28;98505;-73
2023/08/14 10:43:00;;;;;;;13.43;2.90;;;;;;;;;;5000322;28;99631;-72
2023/08/14 10:45:27;;;;;;;17.83;3.17;;;;;;;;;;4988036;28;99492;-73
2023/08/14 10:48:07;;;;;;;14.35;2.83;;;;;;;;;;4991446;28;98663;-73
2023/08/14 10:50:33;;;;;;;10.82;2.42;;;;;;;;;;4988635;28;99377;-73
2023/08/14 10:53:01;;;;;;;8.23;2.53;;;;;;;;;;4992038;28;98730;-73
2023/08/14 10:55:37;;;;;;;11.55;2.53;;;;;;;;;;4988945;28;98473;-73
2023/08/14 10:58:22;;;;;;;7.10;2.30;;;;;;;;;;4988316;28;99848;-72
2023/08/14 11:00:51;;;;;;;12.05;2.10;;;;;;;;;;4985007;28;99661;-73
2023/08/14 11:03:17;;;;;;;12.32;2.60;;;;;;;;;;4993324;28;105179;-73
2023/08/14 11:05:43;;;;;;;10.60;2.33;;;;;;;;;;4992328;28;99623;-72
2023/08/14 11:08:11;;;;;;;6.93;2.08;;;;;;;;;;4988754;28;98618;-72
2023/08/14 11:10:39;;;;;;;8.13;2.03;;;;;;;;;;4997228;28;99474;-72
2023/08/14 11:13:09;;;;;;;5.93;1.50;;;;;;;;;;4987766;28;99458;-73
2023/08/14 11:15:36;;;;;;;9.98;1.80;;;;;;;;;;4992191;28;98566;-72
2023/08/14 11:18:05;;;;;;;12.88;2.47;;;;;;;;;;4993768;28;99117;-72
2023/08/14 11:20:32;;;;;;;5.80;1.80;;;;;;;;;;4989780;28;98579;-72
2023/08/14 11:22:59;;;;;;;7.63;2.28;;;;;;;;;;4994619;28;99256;-72
2023/08/14 11:25:25;;;;;;;8.68;2.03;;;;;;;;;;4991171;28;100238;-72
2023/08/14 11:27:52;;;;;;;5.60;1.80;;;;;;;;;;4992783;28;98501;-73
2023/08/14 11:30:20;;;;;;;5.03;1.77;;;;;;;;;;4995827;28;99161;-73
2023/08/14 11:32:52;;;;;;;11.65;2.30;;;;;;;;;;4989175;28;99452;-73
2023/08/14 11:35:19;;;;;;;7.78;1.88;;;;;;;;;;4988226;28;98950;-73
2023/08/14 11:37:50;;;;;;;5.78;1.58;;;;;;;;;;4991631;28;98780;-72
2023/08/14 11:40:17;;;;;;;8.98;2.15;;;;;;;;;;4991844;28;98509;-72
2023/08/14 11:42:43;;;;;;;7.22;1.98;;;;;;;;;;4982968;28;99202;-72
2023/08/14 11:45:10;;;;;;;7.65;2.55;;;;;;;;;;4991833;28;99485;-72
2023/08/14 11:47:38;;;;;;;6.75;1.70;;;;;;;;;;4991726;28;98557;-72
2023/08/14 11:50:05;;;;;;;7.57;1.70;;;;;;;;;;4995430;28;99351;-72
2023/08/14 11:52:32;;;;;;;9.68;1.70;;;;;;;;;;4995269;28;99808;-72
2023/08/14 11:54:59;;;;;;;6.57;1.98;;;;;;;;;;4990760;28;98956;-72
2023/08/14 11:57:26;;;;;;;8.00;1.65;;;;;;;;;;4991372;28;99485;-72
2023/08/14 11:59:53;;;;;;;7.70;1.70;;;;;;;;;;4995265;28;99143;-73
2023/08/14 12:02:20;;;;;;;5.70;2.03;;;;;;;;;;4991759;28;98999;-72
2023/08/14 12:04:51;;;;;;;4.40;1.50;;;;;;;;;;4993195;28;99501;-73
2023/08/14 12:07:18;;;;;;;5.78;1.88;;;;;;;;;;4983640;28;98554;-72
2023/08/14 12:09:44;;;;;;;7.18;1.92;;;;;;;;;;4990558;28;98698;-72
2023/08/14 12:12:12;;;;;;;6.10;1.50;;;;;;;;;;4993703;28;100330;-72
2023/08/14 12:14:48;;;;;;;8.90;1.88;;;;;;;;;;4994580;28;99330;-72
2023/08/14 12:17:18;;;;;;;9.18;2.05;;;;;;;;;;4990624;28;100180;-72
2023/08/14 12:19:49;;;;;;;13.93;2.05;;;;;;;;;;4994642;28;99584;-72
2023/08/14 12:22:18;;;;;;;10.93;2.22;;;;;;;;;;4993699;28;98588;-73
2023/08/14 12:24:45;;;;;;;5.88;1.70;;;;;;;;;;4990398;28;99289;-74
2023/08/14 12:27:15;;;;;;;10.32;1.92;;;;;;;;;;4990075;28;98720;-74
2023/08/14 12:29:41;;;;;;;9.30;2.38;;;;;;;;;;4986521;28;99186;-74
2023/08/14 12:32:08;;;;;;;9.80;1.80;;;;;;;;;;4990618;28;99639;-75
2023/08/14 12:34:34;;;;;;;7.85;2.15;;;;;;;;;;4994975;28;98540;-74
2023/08/14 12:37:02;;;;;;;5.22;1.90;;;;;;;;;;4990650;28;99136;-75
2023/08/14 12:39:29;;;;;;;9.43;2.00;;;;;;;;;;4990041;28;100548;-75
2023/08/14 12:41:55;;;;;;;5.45;1.52;;;;;;;;;;4990704;28;98546;-74
2023/08/14 12:44:22;;;;;;;5.88;1.25;;;;;;;;;;4993332;28;99403;-74
2023/08/14 12:46:48;;;;;;;8.52;2.05;;;;;;;;;;4991298;28;98825;-76
2023/08/14 12:49:15;;;;;;;5.15;1.70;;;;;;;;;;4990368;28;99214;-75
2023/08/14 12:51:41;;;;;;;6.57;1.85;;;;;;;;;;4994026;28;99846;-75
2023/08/14 12:54:09;;;;;;;7.63;1.45;;;;;;;;;;4988572;28;98645;-74
2023/08/14 12:56:36;;;;;;;7.22;1.60;;;;;;;;;;4990828;28;99115;-75
2023/08/14 12:59:03;;;;;;;9.43;1.63;;;;;;;;;;4990374;28;99388;-74
2023/08/14 13:01:29;;;;;;;6.53;1.70;;;;;;;;;;4990557;28;98779;-75
2023/08/14 13:03:56;;;;;;;5.20;1.83;;;;;;;;;;4992911;28;99399;-75
2023/08/14 13:06:28;;;;;;;5.85;1.73;;;;;;;;;;4990581;28;98481;-74
2023/08/14 13:08:54;;;;;;;5.13;1.55;;;;;;;;;;4990833;28;99426;-75
2023/08/14 13:11:21;;;;;;;9.50;2.10;;;;;;;;;;4986253;28;99526;-74
2023/08/14 13:13:49;;;;;;;8.15;1.73;;;;;;;;;;4990267;28;98651;-74
2023/08/14 13:16:16;;;;;;;6.32;1.65;;;;;;;;;;4990920;28;99231;-74
2023/08/14 13:18:43;;;;;;;12.80;1.60;;;;;;;;;;4992061;28;99805;-75
2023/08/14 13:21:09;;;;;;;7.50;1.45;;;;;;;;;;4995590;28;97804;-75
2023/08/14 13:23:36;;;;;;;7.57;1.52;;;;;;;;;;4995305;28;98546;-78
2023/08/14 13:26:03;;;;;;;9.23;2.10;;;;;;;;;;4997614;28;99677;-78
2023/08/14 13:28:32;;;;;;;5.80;1.80;;;;;;;;;;5001326;28;99368;-78
2023/08/14 13:30:58;;;;;;;4.40;1.65;;;;;;;;;;4994527;28;100254;-78
2023/08/14 13:33:25;;;;;;;6.80;1.60;;;;;;;;;;4990000;28;98832;-78
2023/08/14 13:35:51;;;;;;;5.55;2.03;;;;;;;;;;4987152;28;99127;-77
2023/08/14 13:38:18;;;;;;;8.50;2.22;;;;;;;;;;4994076;28;99465;-78
2023/08/14 13:40:44;;;;;;;3.28;1.70;;;;;;;;;;4996730;28;98502;-78
2023/08/14 13:43:10;;;;;;;5.82;1.70;;;;;;;;;;4990174;28;101025;-77
2023/08/14 13:45:37;;;;;;;8.13;1.80;;;;;;;;;;4992818;28;99856;-77
2023/08/14 13:48:03;;;;;;;5.60;1.90;;;;;;;;;;4992136;28;98663;-77
2023/08/14 13:50:31;;;;;;;7.57;1.83;;;;;;;;;;4989075;28;99838;-79
2023/08/14 13:53:00;;;;;;;5.95;1.80;;;;;;;;;;4993423;28;99546;-78
2023/08/14 13:55:28;;;;;;;8.18;1.80;;;;;;;;;;4993648;28;99973;-79
2023/08/14 13:57:54;;;;;;;5.30;1.88;;;;;;;;;;4989670;28;99480;-79
2023/08/14 14:00:22;;;;;;;8.32;1.80;;;;;;;;;;4997072;28;98868;-79
2023/08/14 14:02:54;;;;;;;5.53;2.03;;;;;;;;;;4993689;28;99170;-79
2023/08/14 14:05:21;;;;;;;8.85;2.00;;;;;;;;;;4989098;28;99655;-79
2023/08/14 14:07:47;;;;;;;5.50;1.60;;;;;;;;;;4992858;28;98700;-78
2023/08/14 14:10:16;;;;;;;4.65;1.80;;;;;;;;;;4994847;28;98031;-79
2023/08/14 14:12:42;;;;;;;8.10;2.58;;;;;;;;;;4990906;28;98557;-78
2023/08/14 14:15:26;;;;;;;5.15;1.83;;;;;;;;;;4990787;28;99043;-78
2023/08/14 14:17:53;;;;;;;6.13;1.70;;;;;;;;;;4986097;28;101270;-78
2023/08/14 14:20:19;;;;;;;6.05;1.60;;;;;;;;;;4993466;28;98643;-78
2023/08/14 14:22:45;;;;;;;4.78;1.75;;;;;;;;;;4997788;28;99448;-78
2023/08/14 14:25:12;;;;;;;6.55;2.10;;;;;;;;;;4989238;28;99469;-78
2023/08/14 14:27:39;;;;;;;10.60;1.70;;;;;;;;;;4996033;28;98560;-78
2023/08/14 14:30:06;;;;;;;6.45;1.60;;;;;;;;;;4990992;28;99171;-78
2023/08/14 14:32:32;;;;;;;7.10;2.10;;;;;;;;;;4990086;28;99795;-78
2023/08/14 14:34:59;;;;;;;4.65;1.70;;;;;;;;;;4989151;28;99200;-78